Time;durP1;ratioP1;P1;durP2;ratioP2;P2;SDS_P1;SDS_P2;PMS_P1;PMS_P2;Temp;Humidity;BMP_temperature;BMP_pressure;BME280_temperature;BME280_humidity;BME280_pressure;Samples;Min_cycle;Max_cycle;Signal;HPM_P1;HPM_P2
2023/04/23 00:01:38;;;;;;;5.00;4.50;;;;;;;15.85;87.64;97483.09;4187810;28;20628;-82
2023/04/23 00:03:41;;;;;;;5.20;4.43;;;;;;;15.87;85.21;97485.56;4184254;28;20641;-82
2023/04/23 00:05:45;;;;;;;4.93;4.43;;;;;;;15.89;86.59;97489.69;4185715;28;20662;-82
2023/04/23 00:07:48;;;;;;;6.50;5.10;;;;;;;15.91;86.11;97484.28;4188985;28;21095;-82
2023/04/23 00:09:52;;;;;;;6.97;5.03;;;;;;;15.89;88.19;97484.44;4189432;28;20637;-82
2023/04/23 00:11:56;;;;;;;6.80;4.97;;;;;;;15.88;86.82;97485.41;4186094;28;20634;-82
2023/04/23 00:14:01;;;;;;;6.37;4.90;;;;;;;15.89;86.96;97480.97;4189016;28;21203;-82
2023/04/23 00:16:05;;;;;;;5.97;5.00;;;;;;;15.91;85.47;97476.41;4183727;28;22811;-82
2023/04/23 00:18:08;;;;;;;5.77;5.00;;;;;;;15.90;87.71;97487.88;4187289;28;20642;-82
2023/04/23 00:20:12;;;;;;;6.53;5.10;;;;;;;15.88;87.73;97482.78;4185223;28;21273;-82
2023/04/23 00:22:15;;;;;;;10.53;5.43;;;;;;;15.86;87.46;97484.75;4188968;28;20639;-82
2023/04/23 00:24:19;;;;;;;7.70;4.60;;;;;;;15.84;88.19;97486.69;4173158;28;20663;-82
2023/04/23 00:26:22;;;;;;;5.90;4.80;;;;;;;15.82;86.54;97488.66;4188547;28;20639;-82
2023/04/23 00:28:26;;;;;;;8.27;4.30;;;;;;;15.65;85.55;97480.75;4182518;28;20631;-82
2023/04/23 00:30:31;;;;;;;5.17;3.93;;;;;;;15.51;84.21;97480.47;4187770;28;20642;-82
2023/04/23 00:32:34;;;;;;;6.83;4.87;;;;;;;15.43;85.20;97475.13;4187971;28;21292;-82
2023/04/23 00:34:37;;;;;;;5.80;4.50;;;;;;;15.43;84.76;97483.03;4175625;28;20624;-82
2023/04/23 00:36:40;;;;;;;5.80;4.40;;;;;;;15.42;85.63;97484.00;4186257;28;20647;-82
2023/04/23 00:38:43;;;;;;;6.33;4.57;;;;;;;15.39;84.17;97484.28;4189765;28;20685;-82
2023/04/23 00:40:46;;;;;;;5.40;4.63;;;;;;;15.42;86.33;97491.88;4185501;28;21288;-82
2023/04/23 00:42:52;;;;;;;6.43;4.47;;;;;;;15.47;86.74;97497.50;4192322;28;20623;-82
2023/04/23 00:44:55;;;;;;;8.40;4.80;;;;;;;15.49;86.79;97493.75;4175985;28;20672;-82
2023/04/23 00:47:00;;;;;;;6.83;4.50;;;;;;;15.53;87.19;97495.13;4179878;28;20639;-82
2023/04/23 00:49:03;;;;;;;5.90;5.13;;;;;;;15.55;85.51;97499.22;4186543;28;20647;-82
2023/04/23 00:51:06;;;;;;;6.93;5.47;;;;;;;15.58;88.22;97498.94;4187690;28;20657;-82
2023/04/23 00:53:10;;;;;;;5.67;4.43;;;;;;;15.55;87.00;97505.50;4188430;28;20635;-82
2023/04/23 00:55:13;;;;;;;6.50;4.23;;;;;;;15.40;84.71;97493.84;4186510;28;21200;-82
2023/04/23 00:57:16;;;;;;;6.10;4.53;;;;;;;15.35;86.03;97494.28;4167626;28;20778;-82
2023/04/23 00:59:20;;;;;;;4.90;4.33;;;;;;;15.34;85.01;97497.06;4189876;28;21377;-82
2023/04/23 01:01:23;;;;;;;4.93;4.43;;;;;;;15.31;86.03;97498.16;4170958;28;20647;-82
2023/04/23 01:03:30;;;;;;;5.00;4.50;;;;;;;15.23;85.86;97505.13;4189647;28;20656;-82
2023/04/23 01:05:35;;;;;;;5.03;4.53;;;;;;;15.22;84.70;97504.31;4168464;28;21250;-82
2023/04/23 01:07:38;;;;;;;6.20;4.10;;;;;;;15.11;87.03;97511.53;4182005;28;20633;-82
2023/04/23 01:09:43;;;;;;;6.73;4.20;;;;;;;15.04;86.13;97509.66;4172880;28;20676;-82
2023/04/23 01:11:47;;;;;;;7.13;3.93;;;;;;;15.07;85.95;97510.16;4188187;28;20641;-82
2023/04/23 01:13:50;;;;;;;6.10;4.10;;;;;;;15.11;86.63;97514.16;4186713;28;21272;-82
2023/04/23 01:15:54;;;;;;;4.80;4.23;;;;;;;15.13;87.03;97517.47;4186606;28;20628;-82
2023/04/23 01:17:59;;;;;;;5.27;4.00;;;;;;;15.13;86.89;97514.84;4184605;28;21202;-82
2023/04/23 01:20:07;;;;;;;4.60;3.83;;;;;;;15.12;87.08;97523.69;4185420;28;20641;-82
2023/04/23 01:22:12;;;;;;;5.40;3.70;;;;;;;15.07;86.79;97520.69;4184921;28;21222;-82
2023/04/23 01:24:16;;;;;;;4.07;3.67;;;;;;;15.01;87.63;97526.50;4189731;28;21238;-81
2023/04/23 01:26:22;;;;;;;6.03;4.23;;;;;;;14.91;88.41;97528.34;4182540;28;20975;-82
2023/04/23 01:28:26;;;;;;;4.63;4.13;;;;;;;14.89;88.29;97532.91;4200839;28;20639;-82
2023/04/23 01:30:30;;;;;;;6.50;4.27;;;;;;;14.86;88.55;97535.84;4161736;28;21232;-82
2023/04/23 01:32:34;;;;;;;5.43;4.20;;;;;;;14.85;90.18;97526.28;4186422;28;20727;-82
2023/04/23 01:34:39;;;;;;;5.73;4.50;;;;;;;14.76;90.55;97529.81;4187910;28;20638;-82
2023/04/23 01:36:43;;;;;;;7.07;4.20;;;;;;;14.79;89.79;97531.31;4186723;28;21255;-82
2023/04/23 01:38:48;;;;;;;5.33;4.20;;;;;;;14.84;90.58;97540.41;4184530;28;20636;-82
2023/04/23 01:40:52;;;;;;;6.53;3.93;;;;;;;14.91;90.48;97543.28;4191497;28;20639;-82
2023/04/23 01:42:57;;;;;;;6.67;4.43;;;;;;;14.97;90.17;97546.16;4169809;28;20631;-82
2023/04/23 01:45:01;;;;;;;6.87;4.47;;;;;;;15.01;91.44;97544.91;4186226;28;20655;-82
2023/04/23 01:47:05;;;;;;;8.00;5.00;;;;;;;15.06;91.69;97553.16;4182006;28;20657;-82
2023/04/23 01:49:09;;;;;;;5.27;4.67;;;;;;;15.11;90.52;97553.56;4171331;28;20694;-82
2023/04/23 01:51:14;;;;;;;6.33;4.53;;;;;;;15.14;91.96;97559.34;4186446;28;20734;-82
2023/04/23 01:53:18;;;;;;;7.37;5.40;;;;;;;15.18;90.60;97557.28;4187723;28;20631;-82
2023/04/23 01:55:23;;;;;;;6.37;5.13;;;;;;;15.19;91.79;97564.19;4174487;28;20656;-82
2023/04/23 01:57:27;;;;;;;5.60;5.00;;;;;;;15.18;92.03;97560.75;4189031;28;21448;-82
2023/04/23 01:59:31;;;;;;;6.07;5.47;;;;;;;15.20;91.52;97568.50;4190208;28;20634;-82
2023/04/23 02:01:45;;;;;;;6.27;5.50;;;;;;;15.20;91.93;97565.88;4190894;28;20650;-82
2023/04/23 02:03:49;;;;;;;9.57;6.53;;;;;;;15.22;92.60;97571.78;4198643;28;20631;-82
2023/04/23 02:05:54;;;;;;;6.60;6.00;;;;;;;15.20;91.74;97565.88;4184808;28;20787;-82
2023/04/23 02:07:58;;;;;;;7.70;6.10;;;;;;;15.19;91.39;97570.28;4171043;28;20669;-82
2023/04/23 02:10:02;;;;;;;7.33;6.53;;;;;;;15.20;91.68;97577.19;4177827;28;20627;-82
2023/04/23 02:12:07;;;;;;;7.13;6.43;;;;;;;15.21;93.42;97581.47;4191716;28;20641;-82
2023/04/23 02:14:11;;;;;;;7.30;6.47;;;;;;;15.22;93.73;97582.31;4190156;28;21161;-82
2023/04/23 02:16:15;;;;;;;7.07;6.37;;;;;;;15.23;93.73;97586.56;4185765;28;20635;-82
2023/04/23 02:18:20;;;;;;;6.97;6.27;;;;;;;15.24;92.39;97588.22;4192803;28;21351;-82
2023/04/23 02:20:24;;;;;;;7.70;7.00;;;;;;;15.23;94.06;97590.03;4173862;28;20638;-81
2023/04/23 02:22:28;;;;;;;9.53;6.30;;;;;;;15.24;92.94;97588.22;4182198;28;21038;-82
2023/04/23 02:24:32;;;;;;;8.60;7.23;;;;;;;15.24;92.71;97591.69;4182698;28;20644;-82
2023/04/23 02:26:35;;;;;;;8.70;6.67;;;;;;;15.23;92.92;97584.78;4188401;28;21347;-82
2023/04/23 02:28:40;;;;;;;7.70;6.77;;;;;;;15.22;93.55;97582.31;4175427;28;20635;-82
2023/04/23 02:30:46;;;;;;;12.43;7.13;;;;;;;15.22;93.41;97584.94;4186082;28;20647;-82
2023/04/23 02:32:50;;;;;;;7.77;6.77;;;;;;;15.22;93.15;97583.13;4187990;28;21650;-82
2023/04/23 02:34:54;;;;;;;8.07;6.30;;;;;;;15.20;93.29;97585.06;4190103;28;20649;-82
2023/04/23 02:36:57;;;;;;;7.87;7.17;;;;;;;15.20;94.64;97594.78;4187629;28;20638;-82
2023/04/23 02:39:01;;;;;;;7.30;6.50;;;;;;;15.18;94.05;97600.16;4184563;28;21062;-82
2023/04/23 02:41:05;;;;;;;9.50;6.70;;;;;;;15.15;93.74;97596.94;4171683;28;20640;-82
2023/04/23 02:43:08;;;;;;;8.17;7.00;;;;;;;15.15;94.46;97603.06;4170618;28;20631;-82
2023/04/23 02:45:13;;;;;;;8.03;7.23;;;;;;;15.13;93.42;97598.91;4176722;28;20668;-82
2023/04/23 02:47:17;;;;;;;9.40;7.30;;;;;;;15.12;95.26;97599.88;4178871;28;20670;-82
2023/04/23 02:49:21;;;;;;;7.93;6.90;;;;;;;15.11;95.29;97606.94;4179846;28;20676;-82
2023/04/23 02:51:24;;;;;;;8.27;6.83;;;;;;;15.11;94.71;97600.84;4168036;28;20634;-82
2023/04/23 02:53:28;;;;;;;7.70;6.70;;;;;;;15.11;95.53;97606.09;4188670;28;21223;-82
2023/04/23 02:55:32;;;;;;;8.70;7.47;;;;;;;15.09;94.46;97598.38;4173028;28;20637;-82
2023/04/23 02:57:35;;;;;;;9.77;7.10;;;;;;;15.08;95.61;97594.09;4190243;28;20653;-82
2023/04/23 02:59:38;;;;;;;8.50;6.60;;;;;;;15.07;94.74;97588.97;4160528;28;21703;-82
2023/04/23 03:01:43;;;;;;;7.87;7.10;;;;;;;15.05;94.73;97590.06;4189130;28;20638;-82
2023/04/23 03:03:47;;;;;;;9.83;7.50;;;;;;;15.04;95.29;97586.63;4171047;28;20619;-82
2023/04/23 03:05:51;;;;;;;10.00;6.37;;;;;;;15.02;95.79;97585.97;4183798;28;20689;-82
2023/04/23 03:07:54;;;;;;;8.77;7.20;;;;;;;14.98;95.07;97587.22;4186519;28;21028;-82
2023/04/23 03:09:57;;;;;;;8.83;7.20;;;;;;;14.97;94.99;97587.34;4173632;28;20643;-82
2023/04/23 03:12:01;;;;;;;8.20;7.40;;;;;;;14.94;95.19;97577.94;4191897;28;20696;-82
2023/04/23 03:14:04;;;;;;;8.63;7.70;;;;;;;14.95;95.05;97578.81;4186626;28;20639;-82
2023/04/23 03:16:08;;;;;;;8.10;7.27;;;;;;;14.96;95.27;97585.69;4175418;28;20688;-82
2023/04/23 03:18:13;;;;;;;8.63;7.83;;;;;;;14.93;95.93;97585.97;4187872;28;20641;-82
2023/04/23 03:20:16;;;;;;;8.47;7.40;;;;;;;14.90;95.39;97591.50;4186943;28;20688;-82
2023/04/23 03:22:20;;;;;;;8.33;7.50;;;;;;;14.87;96.45;97592.66;4171200;28;20644;-82
2023/04/23 03:24:23;;;;;;;10.93;8.60;;;;;;;14.84;95.28;97598.19;4185955;28;20692;-82
2023/04/23 03:26:26;;;;;;;9.10;8.20;;;;;;;14.81;95.17;97587.16;4186924;28;20714;-81
2023/04/23 03:28:30;;;;;;;8.50;7.60;;;;;;;14.79;95.45;97594.31;4191747;28;20634;-81
2023/04/23 03:30:33;;;;;;;10.07;9.00;;;;;;;14.77;95.26;97597.09;4171222;28;20621;-81
2023/04/23 03:32:38;;;;;;;9.20;8.30;;;;;;;14.76;96.55;97592.81;4174578;28;20631;-81
2023/04/23 03:34:43;;;;;;;10.00;9.00;;;;;;;14.73;95.83;97590.47;4172635;28;20702;-82
2023/04/23 03:36:47;;;;;;;11.03;8.70;;;;;;;14.73;95.78;97589.63;4185913;28;20626;-82
2023/04/23 03:38:51;;;;;;;9.87;8.53;;;;;;;14.70;96.08;97589.91;4182978;28;20683;-82
2023/04/23 03:40:55;;;;;;;10.27;9.07;;;;;;;14.68;96.51;97586.63;4170245;28;21040;-82
2023/04/23 03:42:58;;;;;;;10.43;9.00;;;;;;;14.67;96.96;97580.53;4183419;28;20627;-81
2023/04/23 03:45:18;;;;;;;9.80;8.43;;;;;;;14.67;96.00;97570.03;4169740;28;21052;-81
2023/04/23 03:47:22;;;;;;;8.37;7.50;;;;;;;14.66;96.30;97562.31;4173393;28;20662;-82
2023/04/23 03:49:26;;;;;;;9.13;8.10;;;;;;;14.64;96.81;97565.09;4182170;28;21237;-82
2023/04/23 03:51:32;;;;;;;9.40;8.20;;;;;;;14.64;95.71;97565.09;4167711;28;20994;-82
2023/04/23 03:53:35;;;;;;;8.63;7.73;;;;;;;14.64;95.73;97565.09;4174183;28;20632;-82
2023/04/23 03:55:59;;;;;;;9.30;8.40;;;;;;;14.63;96.34;97562.59;4181656;28;20630;-82
2023/04/23 03:58:03;;;;;;;10.60;8.00;;;;;;;14.59;96.49;97565.66;4171641;28;20637;-82
2023/04/23 04:00:18;;;;;;;8.80;7.90;;;;;;;14.54;96.58;97568.69;4192003;28;21132;-82
2023/04/23 04:02:21;;;;;;;10.57;8.40;;;;;;;14.52;95.82;97577.66;4179521;28;20698;-82
2023/04/23 04:04:28;;;;;;;8.87;8.07;;;;;;;14.50;96.42;97577.81;4168662;28;20764;-82
2023/04/23 04:06:33;;;;;;;9.90;8.90;;;;;;;14.51;96.20;97574.22;4190635;28;20648;-82
2023/04/23 04:08:36;;;;;;;10.37;8.10;;;;;;;14.51;96.86;97581.25;4188560;28;20622;-82
2023/04/23 04:10:39;;;;;;;9.07;8.17;;;;;;;14.51;96.90;97581.25;4187735;28;20631;-82
2023/04/23 04:12:44;;;;;;;9.10;8.20;;;;;;;14.50;97.20;97582.25;4186931;28;20647;-82
2023/04/23 04:14:47;;;;;;;9.00;8.10;;;;;;;14.49;95.99;97583.19;4170183;28;20747;-82
2023/04/23 04:16:50;;;;;;;8.50;7.70;;;;;;;14.46;95.93;97580.84;4188203;28;20642;-82
2023/04/23 04:18:53;;;;;;;8.77;7.83;;;;;;;14.47;95.88;97587.78;4190612;28;20631;-82
2023/04/23 04:20:58;;;;;;;10.20;8.13;;;;;;;14.45;96.60;97595.78;4191146;28;20638;-82
2023/04/23 04:23:03;;;;;;;9.70;8.80;;;;;;;14.46;96.31;97593.97;4188996;28;20632;-82
2023/04/23 04:25:07;;;;;;;8.80;7.90;;;;;;;14.48;96.50;97599.91;4181863;28;20648;-82
2023/04/23 04:27:10;;;;;;;12.70;8.53;;;;;;;14.47;96.10;97601.72;4181426;28;20667;-82
2023/04/23 04:29:14;;;;;;;9.33;8.43;;;;;;;14.48;97.03;97594.66;4186978;28;20644;-82
2023/04/23 04:31:19;;;;;;;10.23;9.10;;;;;;;14.47;96.56;97590.41;4185473;28;20646;-82
2023/04/23 04:33:24;;;;;;;10.17;9.07;;;;;;;14.47;97.22;97591.22;4170182;28;20683;-81
2023/04/23 04:35:27;;;;;;;9.97;9.07;;;;;;;14.46;97.09;97586.09;4186742;28;20670;-81
2023/04/23 04:37:30;;;;;;;10.70;8.47;;;;;;;14.46;96.61;97583.47;4199083;28;21221;-82
2023/04/23 04:39:35;;;;;;;10.30;8.30;;;;;;;14.43;96.43;97587.19;4175557;28;20647;-82
2023/04/23 04:41:39;;;;;;;10.43;8.57;;;;;;;14.40;96.93;97586.66;4187540;28;20737;-82
2023/04/23 04:43:44;;;;;;;9.80;8.80;;;;;;;14.33;96.59;97591.66;4187059;28;20661;-82
2023/04/23 04:45:47;;;;;;;12.20;9.33;;;;;;;14.33;96.10;97594.28;4171108;28;20635;-82
2023/04/23 04:47:50;;;;;;;9.43;8.40;;;;;;;14.35;96.84;97599.38;4184467;28;20662;-82
2023/04/23 04:49:56;;;;;;;9.90;8.60;;;;;;;14.34;97.76;97595.09;4183820;28;20689;-82
2023/04/23 04:52:00;;;;;;;10.27;8.13;;;;;;;14.34;97.90;97597.72;4185975;28;20634;-82
2023/04/23 04:54:03;;;;;;;9.60;8.60;;;;;;;14.35;97.79;97613.31;4186333;28;20643;-82
2023/04/23 04:56:08;;;;;;;8.97;8.13;;;;;;;14.37;97.99;97618.44;4187490;28;20673;-82
2023/04/23 04:58:11;;;;;;;9.73;8.57;;;;;;;14.34;97.92;97608.22;4188560;28;20629;-82
2023/04/23 05:00:22;;;;;;;10.70;8.60;;;;;;;14.34;97.95;97610.84;4181589;28;20643;-82
2023/04/23 05:02:25;;;;;;;9.60;8.60;;;;;;;14.34;98.11;97610.84;4183121;28;20641;-82
2023/04/23 05:04:29;;;;;;;9.93;8.90;;;;;;;14.35;97.66;97613.31;4167314;28;20686;-82
2023/04/23 05:06:32;;;;;;;9.77;8.77;;;;;;;14.37;98.31;97607.94;4187093;28;20655;-82
2023/04/23 05:08:35;;;;;;;12.43;8.87;;;;;;;14.35;98.68;97604.63;4187858;28;20758;-82
2023/04/23 05:10:38;;;;;;;9.63;8.70;;;;;;;14.35;98.92;97608.06;4187189;28;20661;-82
2023/04/23 05:12:46;;;;;;;9.73;8.70;;;;;;;14.33;98.79;97611.81;4187224;28;20960;-82
2023/04/23 05:14:49;;;;;;;10.43;9.00;;;;;;;14.33;98.35;97609.19;4187497;28;20663;-82
2023/04/23 05:16:54;;;;;;;9.80;8.60;;;;;;;14.34;97.97;97616.09;4185054;28;20670;-82
2023/04/23 05:18:58;;;;;;;9.00;8.10;;;;;;;14.33;98.31;97611.81;4172594;28;21000;-82
2023/04/23 05:21:01;;;;;;;9.50;8.50;;;;;;;14.32;98.57;97616.22;4168704;28;20639;-82
2023/04/23 05:23:04;;;;;;;10.60;8.53;;;;;;;14.34;98.35;97614.31;4183556;28;20707;-82
2023/04/23 05:25:10;;;;;;;9.47;8.47;;;;;;;14.35;98.50;97615.13;4189304;28;20634;-82
2023/04/23 05:27:13;;;;;;;10.53;9.43;;;;;;;14.36;97.15;97620.22;4188114;28;20663;-82
2023/04/23 05:29:18;;;;;;;9.57;8.67;;;;;;;14.40;97.89;97615.53;4174115;28;20680;-82
2023/04/23 05:31:21;;;;;;;10.37;9.27;;;;;;;14.34;97.90;97614.31;4188081;28;20688;-82
2023/04/23 05:33:24;;;;;;;11.30;10.10;;;;;;;14.33;98.23;97617.88;4198764;28;20650;-82
2023/04/23 05:35:35;;;;;;;11.70;10.50;;;;;;;14.40;99.31;97613.75;4185758;28;20641;-82
2023/04/23 05:37:38;;;;;;;11.50;9.97;;;;;;;14.46;99.07;97607.09;4185673;28;20727;-82
2023/04/23 05:39:41;;;;;;;11.33;9.77;;;;;;;14.52;99.16;97612.59;4171381;28;21065;-82
2023/04/23 05:41:46;;;;;;;10.20;9.10;;;;;;;14.52;97.67;97611.78;4190294;28;20737;-82
2023/04/23 05:43:49;;;;;;;11.07;9.93;;;;;;;14.57;99.25;97620.91;4187832;28;21253;-82
2023/04/23 05:45:54;;;;;;;11.07;9.97;;;;;;;14.63;98.66;97617.72;4185032;28;25100;-82
2023/04/23 05:47:57;;;;;;;11.80;9.93;;;;;;;14.70;99.34;97613.53;4183613;28;20654;-82
2023/04/23 05:50:01;;;;;;;12.33;10.70;;;;;;;14.75;98.66;97620.03;4187157;28;20717;-82
2023/04/23 05:52:06;;;;;;;10.57;9.47;;;;;;;14.84;99.33;97624.44;4179717;28;20638;-82
2023/04/23 05:54:09;;;;;;;12.53;7.83;;;;;;;14.89;98.90;97627.47;4173541;28;20628;-82
2023/04/23 05:56:13;;;;;;;9.27;8.20;;;;;;;14.92;97.03;97627.16;4187080;28;20705;-82
2023/04/23 05:58:17;;;;;;;9.03;7.80;;;;;;;14.96;96.76;97632.97;4186503;28;21078;-82
2023/04/23 06:00:21;;;;;;;12.50;8.17;;;;;;;15.01;97.15;97638.63;4168984;28;20735;-82
2023/04/23 06:02:27;;;;;;;7.53;6.83;;;;;;;15.10;96.89;97634.16;4185911;28;21250;-82
2023/04/23 06:04:31;;;;;;;8.23;6.80;;;;;;;15.18;96.65;97643.97;4193046;28;20713;-82
2023/04/23 06:06:34;;;;;;;7.97;6.77;;;;;;;15.20;96.96;97642.06;4184695;28;20734;-82
2023/04/23 06:08:37;;;;;;;9.93;8.93;;;;;;;15.22;95.71;97648.00;4188659;28;20647;-82
2023/04/23 06:10:40;;;;;;;8.20;7.37;;;;;;;15.13;96.04;97649.63;4172326;28;20696;-82
2023/04/23 06:12:44;;;;;;;9.27;7.47;;;;;;;15.08;95.27;97644.00;4188043;28;21858;-82
2023/04/23 06:14:47;;;;;;;7.87;6.23;;;;;;;15.09;96.21;97650.06;4199145;28;21227;-82
2023/04/23 06:16:50;;;;;;;9.43;6.43;;;;;;;15.06;95.64;97639.84;4181769;28;20639;-82
2023/04/23 06:18:55;;;;;;;7.93;6.70;;;;;;;15.09;95.66;97639.56;4174567;28;21353;-82
2023/04/23 06:21:03;;;;;;;7.83;7.03;;;;;;;15.07;94.81;97639.69;4185613;28;22131;-82
2023/04/23 06:23:06;;;;;;;8.80;7.73;;;;;;;15.08;95.52;97635.28;4179946;28;20606;-82
2023/04/23 06:25:09;;;;;;;7.37;6.67;;;;;;;15.10;96.01;97631.53;4185736;28;20661;-82
2023/04/23 06:27:13;;;;;;;11.80;7.33;;;;;;;15.13;95.99;97635.69;4181252;28;20639;-82
2023/04/23 06:29:20;;;;;;;6.97;6.27;;;;;;;15.14;96.51;97638.16;4157290;28;20763;-82
2023/04/23 06:31:33;;;;;;;6.33;5.73;;;;;;;15.14;96.32;97637.34;4185900;28;20717;-82
2023/04/23 06:33:36;;;;;;;6.50;5.90;;;;;;;15.16;96.72;97638.03;4188523;28;20629;-82
2023/04/23 06:35:41;;;;;;;6.30;5.70;;;;;;;15.20;95.68;97628.94;4186183;28;20634;-81
2023/04/23 06:37:44;;;;;;;7.33;6.37;;;;;;;15.23;96.97;97636.50;4168568;28;20651;-82
2023/04/23 06:39:47;;;;;;;8.53;6.87;;;;;;;15.25;96.97;97630.13;4187206;28;20993;-82
2023/04/23 06:41:51;;;;;;;6.13;5.30;;;;;;;15.28;96.47;97632.47;4188693;28;20716;-83
2023/04/23 06:43:59;;;;;;;6.20;5.57;;;;;;;15.30;94.12;97629.69;4172911;28;20640;-83
2023/04/23 06:46:16;;;;;;;7.67;5.60;;;;;;;15.34;95.60;97623.19;4192462;28;20650;-83
2023/04/23 06:48:20;;;;;;;6.60;6.00;;;;;;;15.37;95.14;97623.72;4193629;28;20661;-83
2023/04/23 06:50:24;;;;;;;6.10;5.50;;;;;;;15.34;92.81;97631.06;4190223;28;20694;-83
2023/04/23 06:52:29;;;;;;;6.83;6.23;;;;;;;15.35;95.33;97625.66;4166588;28;20638;-83
2023/04/23 06:54:32;;;;;;;6.57;5.70;;;;;;;15.40;95.09;97623.44;4185422;28;20632;-83
2023/04/23 06:56:35;;;;;;;6.77;6.07;;;;;;;15.45;95.38;97615.91;4185412;28;20635;-83
2023/04/23 06:58:39;;;;;;;5.70;5.10;;;;;;;15.48;96.08;97618.25;4186927;28;20679;-83
2023/04/23 07:00:51;;;;;;;6.07;5.30;;;;;;;15.54;94.76;97612.41;4188381;28;20719;-81
2023/04/23 07:02:54;;;;;;;5.80;5.20;;;;;;;15.64;93.32;97623.72;4171435;28;20621;-81
2023/04/23 07:04:58;;;;;;;7.80;6.40;;;;;;;15.75;94.44;97607.72;4191642;28;21281;-82
2023/04/23 07:07:01;;;;;;;5.33;4.83;;;;;;;15.83;93.62;97613.91;4182791;28;20690;-82
2023/04/23 07:09:06;;;;;;;5.50;4.80;;;;;;;15.88;92.60;97618.72;4185914;28;20667;-81
2023/04/23 07:11:09;;;;;;;5.83;5.23;;;;;;;15.90;92.98;97607.06;4181062;28;20637;-81
2023/04/23 07:13:12;;;;;;;5.63;4.60;;;;;;;15.93;93.37;97609.41;4179688;28;21297;-81
2023/04/23 07:15:16;;;;;;;4.97;4.47;;;;;;;16.00;91.90;97618.34;4178579;28;20627;-81
2023/04/23 07:17:19;;;;;;;5.77;4.00;;;;;;;16.01;92.30;97611.28;4185949;28;21363;-81
2023/04/23 07:19:22;;;;;;;4.73;4.10;;;;;;;16.02;90.79;97604.06;4191816;28;20631;-81
2023/04/23 07:21:26;;;;;;;6.90;4.20;;;;;;;16.04;91.10;97601.28;4188516;28;20639;-81
2023/04/23 07:23:29;;;;;;;4.80;4.30;;;;;;;16.01;92.03;97598.94;4183867;28;20627;-81
2023/04/23 07:25:34;;;;;;;4.20;3.80;;;;;;;16.05;91.37;97602.94;4188075;28;21313;-81
2023/04/23 07:27:37;;;;;;;5.07;3.97;;;;;;;16.09;92.06;97607.75;4169091;28;21074;-81
2023/04/23 07:29:40;;;;;;;5.40;3.53;;;;;;;16.12;93.41;97606.66;4190437;28;20655;-81
2023/04/23 07:31:44;;;;;;;4.27;3.33;;;;;;;16.14;93.04;97609.94;4179970;28;20677;-80
2023/04/23 07:33:47;;;;;;;4.10;2.90;;;;;;;16.14;91.01;97608.13;4182663;28;20626;-80
2023/04/23 07:35:51;;;;;;;4.10;2.90;;;;;;;16.15;91.71;97606.34;4188490;28;20628;-80
2023/04/23 07:37:56;;;;;;;3.43;2.40;;;;;;;16.14;90.49;97610.75;4188738;28;20668;-80
2023/04/23 07:40:01;;;;;;;3.77;2.73;;;;;;;16.18;90.79;97601.59;4189809;28;20630;-80
2023/04/23 07:42:05;;;;;;;4.23;3.20;;;;;;;16.19;88.70;97598.00;4190165;28;20726;-81
2023/04/23 07:44:08;;;;;;;3.90;3.20;;;;;;;16.23;90.51;97601.19;4179540;28;21003;-81
2023/04/23 07:46:11;;;;;;;3.27;2.90;;;;;;;16.31;90.47;97607.34;4185388;28;21005;-81
2023/04/23 07:48:15;;;;;;;4.30;3.90;;;;;;;16.40;89.83;97597.69;4192010;28;21249;-81
2023/04/23 07:50:18;;;;;;;4.63;4.10;;;;;;;16.40;89.48;97600.31;4187721;28;20666;-81
2023/04/23 07:52:21;;;;;;;4.50;3.43;;;;;;;16.28;86.24;97594.50;4175907;28;21197;-81
2023/04/23 07:54:24;;;;;;;3.50;2.93;;;;;;;16.24;86.12;97600.22;4184253;28;20678;-80
2023/04/23 07:56:31;;;;;;;3.47;2.80;;;;;;;16.15;88.39;97599.25;4176083;28;20685;-80
2023/04/23 07:58:35;;;;;;;3.73;3.37;;;;;;;16.10;86.83;97604.16;4190779;28;20624;-80
2023/04/23 08:00:38;;;;;;;4.53;3.50;;;;;;;16.13;89.11;97597.75;4192207;28;20632;-81
2023/04/23 08:02:42;;;;;;;4.93;3.20;;;;;;;16.20;89.12;97606.72;4205858;28;20677;-81
2023/04/23 08:04:45;;;;;;;3.17;2.63;;;;;;;16.23;87.10;97596.72;4187997;28;20655;-81
2023/04/23 08:06:48;;;;;;;4.20;3.17;;;;;;;16.20;86.42;97596.19;4190998;28;20620;-81
2023/04/23 08:08:52;;;;;;;4.97;3.40;;;;;;;16.27;86.17;97592.00;4185672;28;20635;-81
2023/04/23 08:10:55;;;;;;;4.33;3.10;;;;;;;16.77;87.00;97604.41;4185609;28;21214;-81
2023/04/23 08:12:59;;;;;;;6.47;3.40;;;;;;;17.24;87.61;97609.16;4191537;28;20636;-81
2023/04/23 08:15:05;;;;;;;4.63;2.90;;;;;;;17.50;86.01;97603.69;4167715;28;21191;-81
2023/04/23 08:17:14;;;;;;;3.00;2.67;;;;;;;17.56;85.96;97603.06;4169522;28;20644;-79
2023/04/23 08:19:17;;;;;;;4.63;3.13;;;;;;;17.46;85.30;97599.69;4186169;28;20727;-79
2023/04/23 08:21:21;;;;;;;4.50;3.80;;;;;;;17.36;85.28;97585.00;4184184;28;20687;-78
2023/04/23 08:23:24;;;;;;;3.80;3.50;;;;;;;17.26;84.34;97583.47;4183779;28;20722;-79
2023/04/23 08:25:27;;;;;;;3.37;3.07;;;;;;;17.19;83.32;97579.78;4154649;28;20735;-79
2023/04/23 08:27:31;;;;;;;2.80;2.50;;;;;;;17.10;83.04;97581.53;4167532;28;20641;-79
2023/04/23 08:29:35;;;;;;;4.23;3.83;;;;;;;17.02;82.85;97578.88;4182859;28;20665;-79
2023/04/23 08:31:39;;;;;;;3.40;2.57;;;;;;;16.93;83.42;97575.50;4163142;28;20727;-79
2023/04/23 08:33:43;;;;;;;2.53;2.33;;;;;;;16.81;82.94;97574.97;4179235;28;20761;-79
2023/04/23 08:35:46;;;;;;;2.60;2.23;;;;;;;16.78;83.49;97571.78;4170768;28;20737;-79
2023/04/23 08:37:50;;;;;;;2.77;2.20;;;;;;;16.74;83.56;97568.66;4186802;28;20625;-79
2023/04/23 08:39:53;;;;;;;3.23;2.33;;;;;;;16.71;84.97;97568.97;4185552;28;20651;-79
2023/04/23 08:41:58;;;;;;;2.37;2.00;;;;;;;16.65;83.66;97559.03;4186092;28;20743;-79
2023/04/23 08:44:05;;;;;;;2.63;2.03;;;;;;;16.64;84.95;97565.31;4184871;28;20673;-79
2023/04/23 08:46:12;;;;;;;2.57;2.17;;;;;;;16.62;84.92;97563.81;4189003;28;20701;-79
2023/04/23 08:48:20;;;;;;;3.70;1.93;;;;;;;16.60;84.99;97566.59;4182932;28;20636;-79
2023/04/23 08:50:23;;;;;;;2.90;2.40;;;;;;;16.60;86.19;97571.84;4179757;28;20686;-78
2023/04/23 08:52:29;;;;;;;3.27;2.50;;;;;;;16.62;86.43;97567.25;4183379;28;20764;-79
2023/04/23 08:54:33;;;;;;;4.40;2.60;;;;;;;16.63;85.50;97568.09;4154445;28;20676;-79
2023/04/23 08:56:37;;;;;;;2.80;2.00;;;;;;;16.62;84.85;97564.63;4186240;28;20626;-79
2023/04/23 08:58:40;;;;;;;3.90;3.23;;;;;;;16.61;83.27;97563.00;4182342;28;20640;-79
2023/04/23 09:00:44;;;;;;;2.20;2.00;;;;;;;16.55;82.71;97563.59;4182280;28;20629;-79
2023/04/23 09:02:48;;;;;;;3.00;2.20;;;;;;;16.57;83.75;97563.44;4181998;28;21058;-79
2023/04/23 09:04:53;;;;;;;2.50;2.17;;;;;;;16.59;83.66;97570.19;4182146;28;20654;-79
2023/04/23 09:06:59;;;;;;;2.40;1.87;;;;;;;16.58;83.40;97568.56;4190454;28;20629;-79
2023/04/23 09:09:03;;;;;;;2.37;1.90;;;;;;;16.58;83.80;97563.31;4174889;28;20704;-79
2023/04/23 09:11:07;;;;;;;2.33;1.77;;;;;;;16.61;83.60;97568.25;4159673;28;20657;-79
2023/04/23 09:13:12;;;;;;;3.73;2.10;;;;;;;16.60;84.13;97558.69;4179969;28;20640;-79
2023/04/23 09:15:15;;;;;;;3.30;2.50;;;;;;;16.62;84.64;97554.09;4181358;28;20633;-79
2023/04/23 09:17:19;;;;;;;3.40;3.10;;;;;;;16.66;82.95;97544.91;4180198;28;20639;-79
2023/04/23 09:19:26;;;;;;;5.23;2.53;;;;;;;16.69;84.66;97539.34;4187739;28;20636;-79
2023/04/23 09:21:30;;;;;;;3.20;2.90;;;;;;;16.77;84.60;97547.28;4186007;28;20663;-79
2023/04/23 09:23:37;;;;;;;6.13;1.80;;;;;;;16.81;83.62;97545.16;4191752;28;21069;-79
2023/04/23 09:25:40;;;;;;;3.07;1.70;;;;;;;16.87;84.00;97548.00;4191346;28;21228;-79
2023/04/23 09:27:43;;;;;;;3.40;2.20;;;;;;;16.95;83.18;97545.41;4183162;28;21179;-79
2023/04/23 09:29:51;;;;;;;2.73;2.00;;;;;;;17.00;82.56;97546.59;4186979;28;20616;-79
2023/04/23 09:31:55;;;;;;;2.20;1.70;;;;;;;17.02;81.10;97547.25;4185649;28;20776;-79
2023/04/23 09:33:59;;;;;;;2.10;1.60;;;;;;;17.07;81.86;97541.50;4183544;28;20729;-79
2023/04/23 09:36:05;;;;;;;2.77;1.93;;;;;;;17.13;82.25;97531.16;4183990;28;20629;-79
2023/04/23 09:38:10;;;;;;;2.20;1.90;;;;;;;17.24;82.67;97535.34;4184744;28;20686;-79
2023/04/23 09:40:14;;;;;;;2.30;1.80;;;;;;;17.32;81.79;97530.09;4190970;28;20629;-79
2023/04/23 09:42:18;;;;;;;2.43;2.00;;;;;;;17.39;81.31;97528.50;4184693;28;20624;-80
2023/04/23 09:44:22;;;;;;;2.43;2.00;;;;;;;17.57;82.34;97522.91;4182643;28;20677;-79